createdAt,value
2023-03-23T15:57:56.698Z,31.35
2023-03-23T16:00:28.059Z,31.58
2023-03-23T16:03:04.630Z,30.92
2023-03-23T16:05:32.202Z,31.27
2023-03-23T16:07:59.146Z,33.75
2023-03-23T16:10:27.294Z,32.28
2023-03-23T16:12:54.881Z,32.05
2023-03-23T16:15:21.723Z,30.38
2023-03-23T16:17:48.596Z,31.52
2023-03-23T16:20:21.872Z,30.58
2023-03-23T16:22:49.442Z,30.70
2023-03-23T16:25:17.166Z,30.00
2023-03-23T16:27:52.404Z,30.05
2023-03-23T16:30:25.849Z,29.00
2023-03-23T16:32:54.920Z,28.90
2023-03-23T16:35:23.746Z,29.75
2023-03-23T16:38:07.691Z,29.25
2023-03-23T16:40:36.412Z,29.95
2023-03-23T16:43:08.456Z,29.50
2023-03-23T16:45:37.090Z,30.25
2023-03-23T16:48:04.196Z,30.42
2023-03-23T16:50:31.113Z,31.00
2023-03-23T16:52:57.628Z,30.08
2023-03-23T16:55:26.087Z,30.20
2023-03-23T16:57:58.183Z,30.38
2023-03-23T17:00:32.677Z,30.70
2023-03-23T17:02:59.633Z,92.57
2023-03-23T17:05:29.002Z,52.83
2023-03-23T17:07:56.244Z,40.60
2023-03-23T17:10:24.888Z,32.72
2023-03-23T17:12:51.306Z,45.53
2023-03-23T17:15:17.785Z,42.28
2023-03-23T17:17:44.397Z,36.25
2023-03-23T17:20:11.246Z,31.67
2023-03-23T17:22:39.133Z,29.80
2023-03-23T17:25:07.164Z,30.15
2023-03-23T17:27:34.106Z,28.58
2023-03-23T17:30:00.559Z,29.15
2023-03-23T17:32:26.993Z,28.60
2023-03-23T17:34:53.439Z,28.75
2023-03-23T17:37:21.376Z,26.88
2023-03-23T17:39:48.351Z,26.17
2023-03-23T17:42:14.884Z,26.58
2023-03-23T17:44:42.012Z,26.65
2023-03-23T17:47:08.406Z,27.08
2023-03-23T17:49:35.391Z,26.90
2023-03-23T17:52:01.979Z,28.60
2023-03-23T17:54:31.181Z,28.70
2023-03-23T17:56:58.675Z,27.77
2023-03-23T17:59:26.142Z,27.83
2023-03-23T18:01:53.474Z,27.08
2023-03-23T18:04:20.361Z,27.63
2023-03-23T18:06:46.930Z,27.13
2023-03-23T18:09:13.440Z,27.05
2023-03-23T18:11:40.021Z,26.58
2023-03-23T18:14:06.578Z,27.73
2023-03-23T18:16:33.134Z,28.70
2023-03-23T18:18:59.849Z,31.00
2023-03-23T18:21:27.006Z,29.10
2023-03-23T18:23:59.236Z,27.92
2023-03-23T18:26:26.699Z,28.35
2023-03-23T18:28:53.162Z,28.77
2023-03-23T18:31:21.483Z,28.08
2023-03-23T18:33:50.245Z,28.00
2023-03-23T18:36:19.377Z,27.50
2023-03-23T18:38:46.446Z,30.95
2023-03-23T18:41:13.817Z,28.73
2023-03-23T18:43:41.178Z,28.10
2023-03-23T18:46:08.317Z,26.95
2023-03-23T18:48:36.078Z,26.00
2023-03-23T18:51:02.942Z,26.30
2023-03-23T18:53:29.824Z,25.20
2023-03-23T18:56:11.132Z,24.45
2023-03-23T18:58:38.177Z,23.38
2023-03-23T19:01:08.953Z,21.60
2023-03-23T19:03:36.407Z,21.55
2023-03-23T19:06:04.450Z,21.95
2023-03-23T19:08:31.820Z,22.30
2023-03-23T19:11:01.734Z,21.02
2023-03-23T19:13:34.451Z,20.80
2023-03-23T19:16:01.165Z,20.42
2023-03-23T19:18:28.269Z,20.48
2023-03-23T19:21:13.459Z,20.45
2023-03-23T19:23:42.264Z,20.83
2023-03-23T19:26:12.400Z,20.10
2023-03-23T19:31:08.454Z,20.43
2023-03-23T19:33:34.899Z,19.65
2023-03-23T19:36:10.161Z,19.70
2023-03-23T19:38:39.274Z,20.10
2023-03-23T19:41:06.208Z,20.02
2023-03-23T19:43:33.700Z,18.98
2023-03-23T19:46:00.634Z,19.27
2023-03-23T19:48:27.813Z,18.77
2023-03-23T19:50:56.293Z,17.80
2023-03-23T19:53:23.364Z,17.85
2023-03-23T19:55:51.211Z,18.33
2023-03-23T19:58:17.870Z,18.13
2023-03-23T20:00:45.291Z,17.85
2023-03-23T20:03:12.702Z,16.38
2023-03-23T20:05:40.748Z,16.10
2023-03-23T20:08:09.103Z,16.15
2023-03-23T20:10:35.823Z,15.95
2023-03-23T20:13:03.514Z,16.02
2023-03-23T20:15:31.276Z,16.25
2023-03-23T20:17:58.414Z,15.75
2023-03-23T20:20:25.719Z,15.60
2023-03-23T20:22:54.506Z,16.33
2023-03-23T20:27:49.294Z,16.00
2023-03-23T20:30:17.093Z,15.95
2023-03-23T20:32:46.501Z,15.85
2023-03-23T20:35:14.616Z,14.60
2023-03-23T20:37:41.255Z,16.40
2023-03-23T20:40:11.644Z,14.75
2023-03-23T20:42:39.067Z,14.43
2023-03-23T20:45:08.397Z,15.35
2023-03-23T20:47:34.888Z,16.20
2023-03-23T20:50:01.899Z,15.45
2023-03-23T20:52:28.561Z,15.38
2023-03-23T20:54:55.803Z,15.20
2023-03-23T20:57:23.585Z,15.68
2023-03-23T20:59:53.481Z,15.90
2023-03-23T21:02:20.176Z,15.57
2023-03-23T21:04:47.501Z,15.25
2023-03-23T21:07:13.869Z,16.42
2023-03-23T21:09:41.388Z,17.13
2023-03-23T21:12:09.468Z,17.00
2023-03-23T21:14:38.577Z,17.55
2023-03-23T21:17:06.506Z,17.55
2023-03-23T21:19:33.911Z,18.00
2023-03-23T21:22:00.427Z,18.05
2023-03-23T21:24:29.911Z,19.42
2023-03-23T21:26:59.807Z,20.50
2023-03-23T21:29:27.534Z,19.60
2023-03-23T21:32:07.018Z,20.85
2023-03-23T21:34:36.734Z,21.13
2023-03-23T21:37:03.418Z,21.10
2023-03-23T21:39:29.981Z,22.13
2023-03-23T21:41:59.197Z,22.92
2023-03-23T21:44:25.610Z,22.90
2023-03-23T21:46:54.850Z,22.27
2023-03-23T21:49:21.539Z,23.55
2023-03-23T21:51:49.404Z,23.75
2023-03-23T21:54:15.867Z,22.45
2023-03-23T21:56:42.580Z,23.30
2023-03-23T21:59:09.118Z,23.30
2023-03-23T22:01:40.289Z,22.88
2023-03-23T22:04:07.783Z,22.38
2023-03-23T22:06:35.241Z,21.83
2023-03-23T22:09:05.251Z,22.00
2023-03-23T22:11:32.697Z,22.90
2023-03-23T22:14:00.379Z,21.10
2023-03-23T22:16:27.808Z,21.35
2023-03-23T22:18:56.987Z,22.45
2023-03-23T22:21:27.004Z,23.42
2023-03-23T22:23:56.764Z,23.25
2023-03-23T22:26:24.832Z,22.80
2023-03-23T22:28:52.005Z,22.65
2023-03-23T22:31:24.142Z,22.58
2023-03-23T22:33:56.244Z,22.70
2023-03-23T22:36:25.390Z,21.98
2023-03-23T22:38:53.133Z,21.50
2023-03-23T22:41:24.989Z,21.55
2023-03-23T22:43:52.036Z,21.50
2023-03-23T22:46:18.643Z,21.13
2023-03-23T22:48:45.771Z,21.83
2023-03-23T22:51:15.169Z,21.30
2023-03-23T22:53:41.899Z,21.20
2023-03-23T22:56:09.144Z,19.85
2023-03-23T22:58:36.112Z,19.85
2023-03-23T23:01:07.615Z,20.52
2023-03-23T23:03:35.328Z,19.48
2023-03-23T23:06:02.081Z,20.13
2023-03-23T23:08:30.456Z,19.52
2023-03-23T23:10:58.976Z,19.65
2023-03-23T23:13:26.612Z,19.08
2023-03-23T23:15:55.365Z,18.40
2023-03-23T23:18:22.757Z,17.90
2023-03-23T23:20:55.398Z,16.98
2023-03-23T23:23:23.644Z,18.75
2023-03-23T23:25:50.697Z,17.42
2023-03-23T23:28:18.046Z,18.50
2023-03-23T23:30:45.621Z,16.90
2023-03-23T23:33:12.356Z,16.95
2023-03-23T23:35:40.484Z,16.65
2023-03-23T23:38:09.564Z,16.85
2023-03-23T23:40:36.634Z,16.48
2023-03-23T23:43:04.345Z,15.00
2023-03-23T23:45:31.561Z,15.60
2023-03-23T23:47:59.090Z,15.15
2023-03-23T23:50:26.548Z,15.55
2023-03-23T23:52:53.151Z,14.38
2023-03-23T23:55:20.820Z,14.48
2023-03-23T23:57:48.741Z,13.40
